createdAt,value
2023-06-25T00:00:23.221Z,26.67
2023-06-25T00:01:23.305Z,26.68
2023-06-25T00:02:23.327Z,26.67
2023-06-25T00:03:23.377Z,26.66
2023-06-25T00:04:23.365Z,26.66
2023-06-25T00:05:23.364Z,26.65
2023-06-25T00:06:23.431Z,26.66
2023-06-25T00:07:23.560Z,26.66
2023-06-25T00:08:23.461Z,26.66
2023-06-25T00:09:23.519Z,26.65
2023-06-25T00:10:23.525Z,26.65
2023-06-25T00:11:23.565Z,26.64
2023-06-25T00:12:23.628Z,26.65
2023-06-25T00:13:23.647Z,26.64
2023-06-25T00:14:23.674Z,26.64
2023-06-25T00:15:23.695Z,26.63
2023-06-25T00:16:23.752Z,26.64
2023-06-25T00:17:23.817Z,26.64
2023-06-25T00:18:23.837Z,26.63
2023-06-25T00:19:23.880Z,26.63
2023-06-25T00:20:23.955Z,26.62
2023-06-25T00:21:23.988Z,26.63
2023-06-25T00:22:24.008Z,26.62
2023-06-25T00:23:24.066Z,26.62
2023-06-25T00:24:24.096Z,26.62
2023-06-25T00:25:24.140Z,26.62
2023-06-25T00:26:24.183Z,26.62
2023-06-25T00:27:24.244Z,26.61
2023-06-25T00:28:24.301Z,26.61
2023-06-25T00:29:24.308Z,26.61
2023-06-25T00:30:24.354Z,26.61
2023-06-25T00:31:24.390Z,26.60
2023-06-25T00:32:24.372Z,26.60
2023-06-25T00:33:24.340Z,26.61
2023-06-25T00:34:24.346Z,26.60
2023-06-25T00:35:24.406Z,26.60
2023-06-25T00:36:24.452Z,26.60
2023-06-25T00:37:24.482Z,26.59
2023-06-25T00:38:24.543Z,26.60
2023-06-25T00:39:24.569Z,26.59
2023-06-25T00:40:24.627Z,26.59
2023-06-25T00:41:24.701Z,26.59
2023-06-25T00:42:25.514Z,26.58
2023-06-25T00:43:24.741Z,26.58
2023-06-25T00:44:24.772Z,26.58
2023-06-25T00:45:24.837Z,26.57
2023-06-25T00:46:24.914Z,26.57
2023-06-25T00:47:25.000Z,26.57
2023-06-25T00:48:24.968Z,26.56
2023-06-25T00:49:24.990Z,26.57
2023-06-25T00:50:25.035Z,26.56
2023-06-25T00:51:25.077Z,26.56
2023-06-25T00:52:25.129Z,26.56
2023-06-25T00:53:25.174Z,26.56
2023-06-25T00:54:25.233Z,26.55
2023-06-25T00:55:25.252Z,26.55
2023-06-25T00:56:25.276Z,26.55
2023-06-25T00:57:25.305Z,26.55
2023-06-25T00:58:25.305Z,26.55
2023-06-25T00:59:25.392Z,26.55
2023-06-25T01:00:25.413Z,26.54
2023-06-25T01:01:25.472Z,26.54
2023-06-25T01:02:25.560Z,26.53
2023-06-25T01:03:25.634Z,26.54
2023-06-25T01:04:25.557Z,26.54
2023-06-25T01:05:25.538Z,26.54
2023-06-25T01:06:25.545Z,26.53
2023-06-25T01:07:25.585Z,26.53
2023-06-25T01:08:25.587Z,26.52
2023-06-25T01:09:25.691Z,26.53
2023-06-25T01:10:25.669Z,26.53
2023-06-25T01:11:25.717Z,26.52
2023-06-25T01:12:25.780Z,26.52
2023-06-25T01:13:25.813Z,26.52
2023-06-25T01:14:25.785Z,26.52
2023-06-25T01:15:25.797Z,26.52
2023-06-25T01:16:25.854Z,26.52
2023-06-25T01:17:25.867Z,26.50
2023-06-25T01:18:25.795Z,26.50
2023-06-25T01:19:25.803Z,26.50
2023-06-25T01:20:25.864Z,26.51
2023-06-25T01:21:25.898Z,26.49
2023-06-25T01:22:25.983Z,26.49
2023-06-25T01:23:26.017Z,26.50
2023-06-25T01:24:26.088Z,26.49
2023-06-25T01:25:26.115Z,26.49
2023-06-25T01:26:26.218Z,26.48
2023-06-25T01:27:26.235Z,26.49
2023-06-25T01:28:26.296Z,26.48
2023-06-25T01:29:26.359Z,26.49
2023-06-25T01:30:26.417Z,26.48
2023-06-25T01:31:26.419Z,26.47
2023-06-25T01:32:26.502Z,26.48
2023-06-25T01:33:26.545Z,26.47
2023-06-25T01:34:26.587Z,26.47
2023-06-25T01:35:26.623Z,26.47
2023-06-25T01:36:26.712Z,26.46
2023-06-25T01:37:26.730Z,26.47
2023-06-25T01:38:26.791Z,26.47
2023-06-25T01:39:26.758Z,26.46
2023-06-25T01:40:26.788Z,26.45
2023-06-25T01:41:26.793Z,26.46
2023-06-25T01:42:26.786Z,26.46
2023-06-25T01:43:26.861Z,26.46
2023-06-25T01:44:26.885Z,26.45
2023-06-25T01:45:26.906Z,26.44
2023-06-25T01:46:27.027Z,26.45
2023-06-25T01:47:27.089Z,26.45
2023-06-25T01:48:27.061Z,26.44
2023-06-25T01:49:32.010Z,26.45
2023-06-25T01:50:28.095Z,26.44
2023-06-25T01:51:27.106Z,26.43
2023-06-25T01:52:27.096Z,26.44
2023-06-25T01:53:27.118Z,26.43
2023-06-25T01:54:27.089Z,26.43
2023-06-25T01:55:27.091Z,26.43
2023-06-25T01:56:27.068Z,26.43
2023-06-25T01:57:27.065Z,26.43
2023-06-25T01:58:27.080Z,26.43
2023-06-25T01:59:27.073Z,26.42
2023-06-25T02:00:27.118Z,26.42
2023-06-25T02:01:27.218Z,26.42
2023-06-25T02:02:27.343Z,26.41
2023-06-25T02:03:27.464Z,26.42
2023-06-25T02:04:27.355Z,26.41
2023-06-25T02:05:27.406Z,26.42
2023-06-25T02:06:27.447Z,26.41
2023-06-25T02:07:27.570Z,26.41
2023-06-25T02:08:27.596Z,26.41
2023-06-25T02:09:27.657Z,26.41
2023-06-25T02:10:27.708Z,26.41
2023-06-25T02:11:27.772Z,26.40
2023-06-25T02:12:27.805Z,26.39
2023-06-25T02:13:27.878Z,26.40
2023-06-25T02:14:27.949Z,26.39
2023-06-25T02:15:28.029Z,26.39
2023-06-25T02:16:28.160Z,26.39
2023-06-25T02:17:28.064Z,26.39
2023-06-25T02:18:28.074Z,26.39
2023-06-25T02:19:28.135Z,26.38
2023-06-25T02:20:28.228Z,26.38
2023-06-25T02:21:29.153Z,26.38
2023-06-25T02:22:28.347Z,26.38
2023-06-25T02:23:28.412Z,26.38
2023-06-25T02:24:28.561Z,26.38
2023-06-25T02:25:28.552Z,26.37
2023-06-25T02:26:28.591Z,26.37
2023-06-25T02:27:28.617Z,26.37
2023-06-25T02:28:28.686Z,26.37
2023-06-25T02:29:28.744Z,26.37
2023-06-25T02:30:28.812Z,26.37
2023-06-25T02:31:28.920Z,26.37
2023-06-25T02:32:28.873Z,26.36
2023-06-25T02:33:28.844Z,26.37
2023-06-25T02:34:28.842Z,26.36
2023-06-25T02:35:28.881Z,26.36
2023-06-25T02:36:28.884Z,26.35
2023-06-25T02:37:28.890Z,26.35
2023-06-25T02:38:28.978Z,26.35
2023-06-25T02:39:29.036Z,26.35
2023-06-25T02:40:29.076Z,26.35
2023-06-25T02:41:29.139Z,26.34
2023-06-25T02:42:29.274Z,26.34
2023-06-25T02:43:29.204Z,26.34
2023-06-25T02:44:29.206Z,26.34
2023-06-25T02:45:29.214Z,26.34
2023-06-25T02:46:29.337Z,26.34
2023-06-25T02:47:29.328Z,26.34
2023-06-25T02:48:29.683Z,26.34
2023-06-25T02:49:29.499Z,26.33
2023-06-25T02:50:29.461Z,26.33
2023-06-25T02:51:29.571Z,26.33
2023-06-25T02:52:29.562Z,26.32
2023-06-25T02:53:29.658Z,26.33
2023-06-25T02:54:29.611Z,26.33
2023-06-25T02:55:29.664Z,26.32
2023-06-25T02:56:29.747Z,26.32
2023-06-25T02:57:29.789Z,26.32
2023-06-25T02:58:29.873Z,26.32
2023-06-25T02:59:29.911Z,26.32
2023-06-25T03:00:30.008Z,26.31
2023-06-25T03:01:30.116Z,26.31
2023-06-25T03:02:30.251Z,26.31
2023-06-25T03:03:30.229Z,26.30
2023-06-25T03:04:30.326Z,26.30
2023-06-25T03:05:30.267Z,26.31
2023-06-25T03:06:30.308Z,26.31
2023-06-25T03:07:30.319Z,26.30
2023-06-25T03:08:30.376Z,26.31
2023-06-25T03:09:30.485Z,26.30
2023-06-25T03:10:30.533Z,26.30
2023-06-25T03:11:30.607Z,26.30
2023-06-25T03:12:30.621Z,26.30
2023-06-25T03:13:30.652Z,26.29
2023-06-25T03:14:35.342Z,26.29
2023-06-25T03:15:31.707Z,26.29
2023-06-25T03:16:30.683Z,26.29
2023-06-25T03:17:30.713Z,26.29
2023-06-25T03:18:30.685Z,26.30
2023-06-25T03:19:31.676Z,26.29
2023-06-25T03:20:30.658Z,26.30
2023-06-25T03:21:30.676Z,26.29
2023-06-25T03:22:30.762Z,26.30
2023-06-25T03:23:30.638Z,26.29
2023-06-25T03:24:30.645Z,26.29
2023-06-25T03:25:30.625Z,26.29
2023-06-25T03:26:30.635Z,26.29
2023-06-25T03:27:30.648Z,26.29
2023-06-25T03:28:30.663Z,26.29
2023-06-25T03:29:30.692Z,26.29
2023-06-25T03:30:30.754Z,26.29
2023-06-25T03:31:30.850Z,26.29
2023-06-25T03:32:30.926Z,26.29
2023-06-25T03:33:30.939Z,26.29
2023-06-25T03:34:30.987Z,26.29
2023-06-25T03:35:31.056Z,26.29
2023-06-25T03:36:31.106Z,26.29
2023-06-25T03:37:31.126Z,26.29
2023-06-25T03:38:31.148Z,26.29
2023-06-25T03:39:31.163Z,26.28
2023-06-25T03:40:31.196Z,26.29
2023-06-25T03:41:31.210Z,26.29
2023-06-25T03:42:31.229Z,26.29
2023-06-25T03:43:31.273Z,26.30
2023-06-25T03:44:31.287Z,26.29
2023-06-25T03:45:31.312Z,26.29
2023-06-25T03:46:31.354Z,26.30
2023-06-25T03:47:31.565Z,26.30
2023-06-25T03:48:31.636Z,26.30
2023-06-25T03:49:31.470Z,26.30
2023-06-25T03:50:31.499Z,26.30
2023-06-25T03:51:31.548Z,26.30
2023-06-25T03:52:31.583Z,26.30
2023-06-25T03:53:31.599Z,26.30
2023-06-25T03:54:31.589Z,26.31
2023-06-25T03:55:31.628Z,26.31
2023-06-25T03:56:31.639Z,26.31
2023-06-25T03:57:31.664Z,26.31
2023-06-25T03:58:31.701Z,26.32
2023-06-25T03:59:31.749Z,26.31
2023-06-25T04:00:31.788Z,26.32
2023-06-25T04:01:31.883Z,26.32
2023-06-25T04:02:31.889Z,26.32
2023-06-25T04:03:31.887Z,26.32
2023-06-25T04:04:31.985Z,26.32
2023-06-25T04:05:31.998Z,26.32
2023-06-25T04:06:32.051Z,26.33
2023-06-25T04:07:32.111Z,26.33
2023-06-25T04:08:32.176Z,26.33
2023-06-25T04:09:32.234Z,26.33
2023-06-25T04:10:32.312Z,26.33
2023-06-25T04:11:32.355Z,26.34
2023-06-25T04:12:32.403Z,26.34
2023-06-25T04:13:32.464Z,26.35
2023-06-25T04:14:32.532Z,26.34
2023-06-25T04:15:32.552Z,26.35
2023-06-25T04:16:32.582Z,26.35
2023-06-25T04:17:32.606Z,26.36
2023-06-25T04:18:33.180Z,26.36
2023-06-25T04:19:32.659Z,26.36
2023-06-25T04:20:32.673Z,26.36
2023-06-25T04:21:32.702Z,26.37
2023-06-25T04:22:32.746Z,26.37
2023-06-25T04:23:32.860Z,26.37
2023-06-25T04:24:32.904Z,26.37
2023-06-25T04:25:32.946Z,26.37
2023-06-25T04:26:32.944Z,26.38
2023-06-25T04:27:32.982Z,26.39
2023-06-25T04:28:32.996Z,26.39
2023-06-25T04:29:33.015Z,26.39
2023-06-25T04:30:33.077Z,26.39
2023-06-25T04:31:33.068Z,26.40
2023-06-25T04:32:33.106Z,26.40
2023-06-25T04:33:33.113Z,26.41
2023-06-25T04:34:33.071Z,26.41
2023-06-25T04:35:33.094Z,26.41
2023-06-25T04:36:33.094Z,26.42
2023-06-25T04:37:33.111Z,26.49
2023-06-25T04:38:33.133Z,27.29
2023-06-25T04:39:33.179Z,28.73
2023-06-25T04:40:33.189Z,30.03
2023-06-25T04:41:33.194Z,31.04
2023-06-25T04:42:33.262Z,31.75
2023-06-25T04:43:33.275Z,31.98
2023-06-25T04:44:33.364Z,31.70
2023-06-25T04:45:33.397Z,31.07
2023-06-25T04:46:33.427Z,30.40
2023-06-25T04:47:33.436Z,29.90
2023-06-25T04:48:33.475Z,29.50
2023-06-25T04:49:33.544Z,29.18
2023-06-25T04:50:33.562Z,28.89
2023-06-25T04:51:33.605Z,28.65
2023-06-25T04:52:33.650Z,28.46
2023-06-25T04:53:34.999Z,28.29
2023-06-25T04:54:33.653Z,28.16
2023-06-25T04:55:33.672Z,28.05
2023-06-25T04:56:33.682Z,27.95
2023-06-25T04:57:33.713Z,27.88
2023-06-25T04:58:33.785Z,27.82
2023-06-25T04:59:33.813Z,27.75
2023-06-25T05:00:33.877Z,27.73
2023-06-25T05:01:33.980Z,27.71
2023-06-25T05:02:33.978Z,27.70
2023-06-25T05:03:34.019Z,27.70
2023-06-25T05:04:34.002Z,27.68
2023-06-25T05:05:34.102Z,27.69
2023-06-25T05:06:34.036Z,27.69
2023-06-25T05:07:34.035Z,27.68
2023-06-25T05:08:34.019Z,27.68
2023-06-25T05:09:34.021Z,27.67
2023-06-25T05:10:34.038Z,27.65
2023-06-25T05:11:34.018Z,27.64
2023-06-25T05:12:34.130Z,27.63
2023-06-25T05:13:34.114Z,27.63
2023-06-25T05:14:34.177Z,27.62
2023-06-25T05:15:34.242Z,27.62
2023-06-25T05:16:34.304Z,27.62
2023-06-25T05:17:34.348Z,27.63
2023-06-25T05:18:34.366Z,27.63
2023-06-25T05:19:34.363Z,27.65
2023-06-25T05:20:34.355Z,27.65
2023-06-25T05:21:34.370Z,27.66
2023-06-25T05:22:34.390Z,27.67
2023-06-25T05:23:34.413Z,27.68
2023-06-25T05:24:34.387Z,27.69
2023-06-25T05:25:34.453Z,27.71
2023-06-25T05:26:34.417Z,27.72
2023-06-25T05:27:34.404Z,27.74
2023-06-25T05:28:35.269Z,27.74
2023-06-25T05:29:34.414Z,27.76
2023-06-25T05:30:35.487Z,27.78
2023-06-25T05:31:34.457Z,27.79
2023-06-25T05:32:34.470Z,27.82
2023-06-25T05:33:34.468Z,27.83
2023-06-25T05:34:34.471Z,27.85
2023-06-25T05:35:34.691Z,27.86
2023-06-25T05:36:34.524Z,27.88
2023-06-25T05:37:34.549Z,27.90
2023-06-25T05:38:34.577Z,27.91
2023-06-25T05:39:35.220Z,27.93
2023-06-25T05:40:34.683Z,27.95
2023-06-25T05:41:34.686Z,27.95
2023-06-25T05:42:34.759Z,27.98
2023-06-25T05:43:34.780Z,27.99
2023-06-25T05:44:34.799Z,28.00
2023-06-25T05:45:35.018Z,28.02
2023-06-25T05:46:34.904Z,28.04
2023-06-25T05:47:34.978Z,28.05
2023-06-25T05:48:34.980Z,28.07
2023-06-25T05:49:35.060Z,28.08
2023-06-25T05:50:35.070Z,28.09
2023-06-25T05:51:35.086Z,28.11
2023-06-25T05:52:35.156Z,28.13
2023-06-25T05:53:35.174Z,28.14
2023-06-25T05:54:35.197Z,28.15
2023-06-25T05:55:35.495Z,28.17
2023-06-25T05:56:35.302Z,28.18
2023-06-25T05:57:35.326Z,28.19
2023-06-25T05:58:35.352Z,28.22
2023-06-25T05:59:35.385Z,28.22
2023-06-25T06:00:35.404Z,28.24
2023-06-25T06:01:35.468Z,28.25
2023-06-25T06:02:35.472Z,28.26
2023-06-25T06:03:35.478Z,28.28
2023-06-25T06:04:35.504Z,28.29
2023-06-25T06:05:35.669Z,28.31
2023-06-25T06:06:35.545Z,28.32
2023-06-25T06:07:35.587Z,28.34
2023-06-25T06:08:35.615Z,28.35
2023-06-25T06:09:35.684Z,28.36
2023-06-25T06:10:35.714Z,28.37
2023-06-25T06:11:35.766Z,28.39
2023-06-25T06:12:35.794Z,28.40
2023-06-25T06:13:35.804Z,28.41
2023-06-25T06:14:35.846Z,28.43
2023-06-25T06:15:36.109Z,28.44
2023-06-25T06:16:35.858Z,28.47
2023-06-25T06:17:35.895Z,28.48
2023-06-25T06:18:35.861Z,28.50
2023-06-25T06:19:35.856Z,28.52
2023-06-25T06:20:35.844Z,28.54
2023-06-25T06:21:35.846Z,28.55
2023-06-25T06:22:36.251Z,28.57
2023-06-25T06:23:36.045Z,28.58
2023-06-25T06:24:35.855Z,28.61
2023-06-25T06:25:36.402Z,28.62
2023-06-25T06:26:35.882Z,28.63
2023-06-25T06:27:35.940Z,28.65
2023-06-25T06:28:35.924Z,28.67
2023-06-25T06:29:35.955Z,28.68
2023-06-25T06:30:36.009Z,28.71
2023-06-25T06:31:35.994Z,28.72
2023-06-25T06:32:36.090Z,28.74
2023-06-25T06:33:37.686Z,28.75
2023-06-25T06:34:36.124Z,28.76
2023-06-25T06:35:36.468Z,28.78
2023-06-25T06:36:36.252Z,28.80
2023-06-25T06:37:36.318Z,28.82
2023-06-25T06:38:36.401Z,28.83
2023-06-25T06:39:36.413Z,28.85
2023-06-25T06:40:36.432Z,28.85
2023-06-25T06:41:36.449Z,28.87
2023-06-25T06:42:36.456Z,28.89
2023-06-25T06:43:36.509Z,28.90
2023-06-25T06:44:36.539Z,28.91
2023-06-25T06:45:36.843Z,28.92
2023-06-25T06:46:36.659Z,28.94
2023-06-25T06:47:36.716Z,28.96
2023-06-25T06:48:36.776Z,28.97
2023-06-25T06:49:36.850Z,28.98
2023-06-25T06:50:36.896Z,28.99
2023-06-25T06:51:36.939Z,29.01
2023-06-25T06:52:36.972Z,29.01
2023-06-25T06:53:37.054Z,29.03
2023-06-25T06:54:37.069Z,29.05
2023-06-25T06:55:37.338Z,29.06
2023-06-25T06:56:37.079Z,29.07
2023-06-25T06:57:37.617Z,29.08
2023-06-25T06:58:37.149Z,29.09
2023-06-25T06:59:37.204Z,29.10
2023-06-25T07:00:37.220Z,29.12
2023-06-25T07:01:37.333Z,29.13
2023-06-25T07:02:37.309Z,29.15
2023-06-25T07:03:37.339Z,29.15
2023-06-25T07:04:37.384Z,29.17
2023-06-25T07:05:37.627Z,29.18
2023-06-25T07:06:37.442Z,29.19
2023-06-25T07:07:37.464Z,29.20
2023-06-25T07:08:37.544Z,29.21
2023-06-25T07:09:37.564Z,29.22
2023-06-25T07:10:37.572Z,29.23
2023-06-25T07:11:37.623Z,29.25
2023-06-25T07:12:37.625Z,29.25
2023-06-25T07:13:37.663Z,29.26
2023-06-25T07:14:37.712Z,29.27
2023-06-25T07:15:38.036Z,29.28
2023-06-25T07:16:37.833Z,29.30
2023-06-25T07:17:37.964Z,29.30
2023-06-25T07:18:37.958Z,29.32
2023-06-25T07:19:38.027Z,29.33
2023-06-25T07:20:38.105Z,29.34
2023-06-25T07:21:38.164Z,29.35
2023-06-25T07:22:38.195Z,29.35
2023-06-25T07:23:38.270Z,29.36
2023-06-25T07:24:38.297Z,29.38
2023-06-25T07:25:38.663Z,29.38
2023-06-25T07:26:38.397Z,29.39
2023-06-25T07:27:38.504Z,29.40
2023-06-25T07:28:38.526Z,29.42
2023-06-25T07:29:38.494Z,29.42
2023-06-25T07:30:38.500Z,29.44
2023-06-25T07:31:38.549Z,29.45
2023-06-25T07:32:38.613Z,29.47
2023-06-25T07:33:38.561Z,29.47
2023-06-25T07:34:38.594Z,29.49
2023-06-25T07:35:39.062Z,29.49
2023-06-25T07:36:38.625Z,29.50
2023-06-25T07:37:38.996Z,29.51
2023-06-25T07:38:38.617Z,29.52
2023-06-25T07:39:38.672Z,29.53
2023-06-25T07:40:38.692Z,29.54
2023-06-25T07:41:38.687Z,29.56
2023-06-25T07:42:38.708Z,29.58
2023-06-25T07:43:38.737Z,29.58
2023-06-25T07:44:54.592Z,29.59
2023-06-25T07:45:40.143Z,29.59
2023-06-25T07:46:38.785Z,29.61
2023-06-25T07:47:38.755Z,29.63
2023-06-25T07:48:38.744Z,29.63
2023-06-25T07:49:38.731Z,29.64
2023-06-25T07:50:38.729Z,29.65
2023-06-25T07:51:38.715Z,29.66
2023-06-25T07:52:38.704Z,29.67
2023-06-25T07:53:38.688Z,29.67
2023-06-25T07:54:38.701Z,29.68
2023-06-25T07:55:52.169Z,29.69
2023-06-25T07:56:39.682Z,29.69
2023-06-25T07:57:38.647Z,29.70
2023-06-25T07:58:38.793Z,29.71
2023-06-25T07:59:51.113Z,29.72
2023-06-25T08:00:39.630Z,29.72
2023-06-25T08:01:38.617Z,29.74
2023-06-25T08:02:38.771Z,29.75
2023-06-25T08:03:38.766Z,29.76
2023-06-25T08:04:38.659Z,29.76
2023-06-25T08:05:38.759Z,29.77
2023-06-25T08:06:38.611Z,29.78
2023-06-25T08:07:38.636Z,29.79
2023-06-25T08:08:38.621Z,29.79
2023-06-25T08:09:38.578Z,29.80
2023-06-25T08:10:38.589Z,29.81
2023-06-25T08:11:38.611Z,29.82
2023-06-25T08:12:38.566Z,29.82
2023-06-25T08:13:38.585Z,29.82
2023-06-25T08:14:38.641Z,29.83
2023-06-25T08:15:39.246Z,29.85
2023-06-25T08:16:38.748Z,29.84
2023-06-25T08:17:38.830Z,29.86
2023-06-25T08:18:38.886Z,29.86
2023-06-25T08:19:38.927Z,29.87
2023-06-25T08:20:38.930Z,29.87
2023-06-25T08:21:38.983Z,29.88
2023-06-25T08:22:38.972Z,29.88
2023-06-25T08:23:38.988Z,29.89
2023-06-25T08:24:39.072Z,29.90
2023-06-25T08:25:39.331Z,29.89
2023-06-25T08:26:39.026Z,29.91
2023-06-25T08:27:39.072Z,29.91
2023-06-25T08:28:39.129Z,29.92
2023-06-25T08:29:39.196Z,29.92
2023-06-25T08:30:39.268Z,29.93
2023-06-25T08:31:39.386Z,29.94
2023-06-25T08:32:39.407Z,29.94
2023-06-25T08:33:39.487Z,29.95
2023-06-25T08:34:39.588Z,29.96
2023-06-25T08:35:39.832Z,29.96
2023-06-25T08:36:39.520Z,29.97
2023-06-25T08:37:39.498Z,29.97
2023-06-25T08:38:39.525Z,29.98
2023-06-25T08:39:39.560Z,29.99
2023-06-25T08:40:39.623Z,29.99
2023-06-25T08:41:39.648Z,30.00
2023-06-25T08:42:39.694Z,30.00
2023-06-25T08:43:39.717Z,30.00
2023-06-25T08:44:39.739Z,30.01
2023-06-25T08:45:39.997Z,30.01
2023-06-25T08:46:39.859Z,30.02
2023-06-25T08:47:39.901Z,30.02
2023-06-25T08:48:39.938Z,30.02
2023-06-25T08:49:39.977Z,30.03
2023-06-25T08:50:39.993Z,30.03
2023-06-25T08:51:40.029Z,30.03
2023-06-25T08:52:40.108Z,30.04
2023-06-25T08:53:40.119Z,30.05
2023-06-25T08:54:40.191Z,30.06
2023-06-25T08:55:40.208Z,30.06
2023-06-25T08:56:40.236Z,30.06
2023-06-25T08:57:40.276Z,30.06
2023-06-25T08:58:40.269Z,30.06
2023-06-25T08:59:40.269Z,30.07
2023-06-25T09:00:40.291Z,30.08
2023-06-25T09:01:40.305Z,30.08
2023-06-25T09:02:40.409Z,30.08
2023-06-25T09:03:40.406Z,30.08
2023-06-25T09:04:40.470Z,30.08
2023-06-25T09:05:40.464Z,30.09
2023-06-25T09:06:50.804Z,30.09
2023-06-25T09:07:41.513Z,30.09
2023-06-25T09:08:40.504Z,30.09
2023-06-25T09:09:40.561Z,30.10
2023-06-25T09:10:40.456Z,30.10
2023-06-25T09:11:40.467Z,30.10
2023-06-25T09:12:40.461Z,30.11
2023-06-25T09:13:40.434Z,30.11
2023-06-25T09:14:40.444Z,30.11
2023-06-25T09:15:40.431Z,30.11
2023-06-25T09:16:40.439Z,30.12
2023-06-25T09:17:40.433Z,30.12
2023-06-25T09:18:40.413Z,30.12
2023-06-25T09:19:40.444Z,30.12
2023-06-25T09:20:40.440Z,30.12
2023-06-25T09:21:40.474Z,30.13
2023-06-25T09:22:40.502Z,30.13
2023-06-25T09:23:40.523Z,30.13
2023-06-25T09:24:40.531Z,30.13
2023-06-25T09:25:40.557Z,30.13
2023-06-25T09:26:40.554Z,30.14
2023-06-25T09:27:40.618Z,30.14
2023-06-25T09:28:40.694Z,30.15
2023-06-25T09:29:40.738Z,30.13
2023-06-25T09:30:40.780Z,30.14
2023-06-25T09:31:40.765Z,30.14
2023-06-25T09:32:40.797Z,30.14
2023-06-25T09:33:40.828Z,30.15
2023-06-25T09:34:40.864Z,30.15
2023-06-25T09:35:40.967Z,30.15
2023-06-25T09:36:40.967Z,30.14
2023-06-25T09:37:40.999Z,30.15
2023-06-25T09:38:40.992Z,30.16
2023-06-25T09:39:41.011Z,30.15
2023-06-25T09:40:41.054Z,30.15
2023-06-25T09:41:41.083Z,30.15
2023-06-25T09:42:41.114Z,30.15
2023-06-25T09:43:41.150Z,30.15
2023-06-25T09:44:41.183Z,30.15
2023-06-25T09:45:41.185Z,30.15
2023-06-25T09:46:41.479Z,30.15
2023-06-25T09:47:41.285Z,30.15
2023-06-25T09:48:41.266Z,30.15
2023-06-25T09:49:41.292Z,30.15
2023-06-25T09:50:41.337Z,30.15
2023-06-25T09:51:41.372Z,30.16
2023-06-25T09:52:41.339Z,30.15
2023-06-25T09:53:41.389Z,30.16
2023-06-25T09:54:41.425Z,30.16
2023-06-25T09:55:41.443Z,30.15
2023-06-25T09:56:41.503Z,30.16
2023-06-25T09:57:41.525Z,30.15
2023-06-25T09:58:41.541Z,30.16
2023-06-25T09:59:41.622Z,30.15
2023-06-25T10:00:41.619Z,30.15
2023-06-25T10:01:41.767Z,30.15
2023-06-25T10:02:41.758Z,30.14
2023-06-25T10:03:41.816Z,30.15
2023-06-25T10:04:44.270Z,30.15
2023-06-25T10:05:41.753Z,30.15
2023-06-25T10:06:41.790Z,30.15
2023-06-25T10:07:41.755Z,30.14
2023-06-25T10:08:41.780Z,30.14
2023-06-25T10:09:41.711Z,30.14
2023-06-25T10:10:41.941Z,30.14
2023-06-25T10:11:41.734Z,30.14
2023-06-25T10:12:41.695Z,30.14
2023-06-25T10:13:41.713Z,30.13
2023-06-25T10:14:41.701Z,30.13
2023-06-25T10:15:42.042Z,30.13
2023-06-25T10:16:41.682Z,30.12
2023-06-25T10:17:41.708Z,30.12
2023-06-25T10:18:41.683Z,30.13
2023-06-25T10:19:41.680Z,30.12
2023-06-25T10:20:41.650Z,30.11
2023-06-25T10:21:41.668Z,30.12
2023-06-25T10:22:41.650Z,30.11
2023-06-25T10:23:41.647Z,30.12
2023-06-25T10:24:41.687Z,30.11
2023-06-25T10:25:41.747Z,30.10
2023-06-25T10:26:41.625Z,30.10
2023-06-25T10:27:41.671Z,30.10
2023-06-25T10:28:41.631Z,30.10
2023-06-25T10:29:41.631Z,30.10
2023-06-25T10:30:41.659Z,30.09
2023-06-25T10:31:41.718Z,30.09
2023-06-25T10:32:41.693Z,30.10
2023-06-25T10:33:41.681Z,30.08
2023-06-25T10:34:41.676Z,30.08
2023-06-25T10:35:41.688Z,30.08
2023-06-25T10:36:41.752Z,30.07
2023-06-25T10:37:41.751Z,30.07
2023-06-25T10:38:41.834Z,30.07
2023-06-25T10:39:41.850Z,30.07
2023-06-25T10:40:41.918Z,30.06
2023-06-25T10:41:42.036Z,30.06
2023-06-25T10:42:41.963Z,30.06
2023-06-25T10:43:41.976Z,30.06
2023-06-25T10:44:41.967Z,30.04
2023-06-25T10:45:41.961Z,30.05
2023-06-25T10:46:41.988Z,30.05
2023-06-25T10:47:42.062Z,30.05
2023-06-25T10:48:42.073Z,30.05
2023-06-25T10:49:42.124Z,30.04
2023-06-25T10:50:42.182Z,30.04
2023-06-25T10:51:43.565Z,30.03
2023-06-25T10:52:42.231Z,30.03
2023-06-25T10:53:42.258Z,30.03
2023-06-25T10:54:42.337Z,30.03
2023-06-25T10:55:42.345Z,30.02
2023-06-25T10:56:42.406Z,30.01
2023-06-25T10:57:42.462Z,30.01
2023-06-25T10:58:42.523Z,30.01
2023-06-25T10:59:42.553Z,30.01
2023-06-25T11:00:42.596Z,30.01
2023-06-25T11:01:42.667Z,30.00
2023-06-25T11:02:42.746Z,30.00
2023-06-25T11:03:42.874Z,30.00
2023-06-25T11:04:42.727Z,29.99
2023-06-25T11:05:42.753Z,29.99
2023-06-25T11:06:42.759Z,29.98
2023-06-25T11:07:42.734Z,29.98
2023-06-25T11:08:42.792Z,29.97
2023-06-25T11:09:42.810Z,29.97
2023-06-25T11:10:42.852Z,29.96
2023-06-25T11:11:42.921Z,29.97
2023-06-25T11:12:42.960Z,29.96
2023-06-25T11:13:43.004Z,29.95
2023-06-25T11:14:43.075Z,29.95
2023-06-25T11:15:43.123Z,29.95
2023-06-25T11:16:43.109Z,29.94
2023-06-25T11:17:43.154Z,29.94
2023-06-25T11:18:43.151Z,29.94
2023-06-25T11:19:43.132Z,29.94
2023-06-25T11:20:43.134Z,29.92
2023-06-25T11:21:43.143Z,29.93
2023-06-25T11:22:43.214Z,29.91
2023-06-25T11:23:43.232Z,29.91
2023-06-25T11:24:43.228Z,29.91
2023-06-25T11:25:43.587Z,29.90
2023-06-25T11:26:43.220Z,29.90
2023-06-25T11:27:43.226Z,29.90
2023-06-25T11:28:43.232Z,29.89
2023-06-25T11:29:43.308Z,29.89
2023-06-25T11:30:43.363Z,29.88
2023-06-25T11:31:43.366Z,29.88
2023-06-25T11:32:43.383Z,29.88
2023-06-25T11:33:43.417Z,29.88
2023-06-25T11:34:43.390Z,29.87
2023-06-25T11:35:43.480Z,29.87
2023-06-25T11:36:43.476Z,29.87
2023-06-25T11:37:43.506Z,29.86
2023-06-25T11:38:43.579Z,29.85
2023-06-25T11:39:43.661Z,29.85
2023-06-25T11:40:43.581Z,29.84
2023-06-25T11:41:43.643Z,29.84
2023-06-25T11:42:43.701Z,29.84
2023-06-25T11:43:43.754Z,29.84
2023-06-25T11:44:43.807Z,29.83
2023-06-25T11:45:43.852Z,29.83
2023-06-25T11:46:43.864Z,29.83
2023-06-25T11:47:43.911Z,29.83
2023-06-25T11:48:43.862Z,29.82
2023-06-25T11:49:43.869Z,29.81
2023-06-25T11:50:43.896Z,29.82
2023-06-25T11:51:43.908Z,29.81
2023-06-25T11:52:43.918Z,29.80
2023-06-25T11:53:43.935Z,29.80
2023-06-25T11:54:44.015Z,29.79
2023-06-25T11:55:44.151Z,29.79
2023-06-25T11:56:44.041Z,29.79
2023-06-25T11:57:44.031Z,29.78
2023-06-25T11:58:44.058Z,29.78
2023-06-25T11:59:44.087Z,29.78
2023-06-25T12:00:45.444Z,29.77
2023-06-25T12:01:44.130Z,29.78
2023-06-25T12:02:49.433Z,29.75
2023-06-25T12:03:45.360Z,29.75
2023-06-25T12:04:44.126Z,29.75
2023-06-25T12:05:44.085Z,29.74
2023-06-25T12:06:44.087Z,29.74
2023-06-25T12:07:44.053Z,29.73
2023-06-25T12:08:44.112Z,29.73
2023-06-25T12:09:44.057Z,29.72
2023-06-25T12:10:44.087Z,29.72
2023-06-25T12:11:44.042Z,29.71
2023-06-25T12:12:44.211Z,29.70
2023-06-25T12:13:44.025Z,29.70
2023-06-25T12:14:44.019Z,29.70
2023-06-25T12:15:44.031Z,29.70
2023-06-25T12:16:44.035Z,29.69
2023-06-25T12:17:44.070Z,29.68
2023-06-25T12:18:44.017Z,29.67
2023-06-25T12:19:44.045Z,29.67
2023-06-25T12:20:44.070Z,29.67
2023-06-25T12:21:44.125Z,29.66
2023-06-25T12:22:44.213Z,29.65
2023-06-25T12:23:44.256Z,29.65
2023-06-25T12:24:44.281Z,29.65
2023-06-25T12:25:44.342Z,29.64
2023-06-25T12:26:44.386Z,29.64
2023-06-25T12:27:44.393Z,29.63
2023-06-25T12:28:44.444Z,29.63
2023-06-25T12:29:44.420Z,29.62
2023-06-25T12:30:44.423Z,29.62
2023-06-25T12:31:44.570Z,29.61
2023-06-25T12:32:44.559Z,29.60
2023-06-25T12:33:44.596Z,29.60
2023-06-25T12:34:44.582Z,29.59
2023-06-25T12:35:44.656Z,29.59
2023-06-25T12:36:44.703Z,29.59
2023-06-25T12:37:44.744Z,29.58
2023-06-25T12:38:44.778Z,29.58
2023-06-25T12:39:44.808Z,29.57
2023-06-25T12:40:44.833Z,29.57
2023-06-25T12:41:44.870Z,29.56
2023-06-25T12:42:44.894Z,29.56
2023-06-25T12:43:44.907Z,29.55
2023-06-25T12:44:44.972Z,29.55
2023-06-25T12:45:44.966Z,29.54
2023-06-25T12:46:45.056Z,29.55
2023-06-25T12:47:45.184Z,29.54
2023-06-25T12:48:45.168Z,29.52
2023-06-25T12:49:45.143Z,29.53
2023-06-25T12:50:45.143Z,29.52
2023-06-25T12:51:45.113Z,29.51
2023-06-25T12:52:45.170Z,29.51